sensor_id;sensor_type;location;lat;lon;timestamp;P1;durP1;ratioP1;P2;durP2;ratioP2
9138;SDS011;4604;48.616;9.548;2022-08-25T00:01:11;8.57;;;3.53;;
9138;SDS011;4604;48.616;9.548;2022-08-25T00:03:39;5.88;;;3.35;;
9138;SDS011;4604;48.616;9.548;2022-08-25T00:06:07;5.35;;;3.60;;
9138;SDS011;4604;48.616;9.548;2022-08-25T00:08:34;4.00;;;3.50;;
9138;SDS011;4604;48.616;9.548;2022-08-25T00:11:02;3.95;;;3.55;;
9138;SDS011;4604;48.616;9.548;2022-08-25T00:13:31;4.95;;;3.40;;
9138;SDS011;4604;48.616;9.548;2022-08-25T00:15:58;5.53;;;3.55;;
9138;SDS011;4604;48.616;9.548;2022-08-25T00:18:26;4.35;;;3.40;;
9138;SDS011;4604;48.616;9.548;2022-08-25T00:20:52;4.97;;;3.58;;
9138;SDS011;4604;48.616;9.548;2022-08-25T00:23:22;4.07;;;3.67;;
9138;SDS011;4604;48.616;9.548;2022-08-25T00:25:52;3.60;;;3.03;;
9138;SDS011;4604;48.616;9.548;2022-08-25T00:28:19;4.10;;;3.47;;
9138;SDS011;4604;48.616;9.548;2022-08-25T00:30:47;3.42;;;3.13;;
9138;SDS011;4604;48.616;9.548;2022-08-25T00:33:14;4.50;;;3.38;;
9138;SDS011;4604;48.616;9.548;2022-08-25T00:35:42;3.92;;;3.53;;
9138;SDS011;4604;48.616;9.548;2022-08-25T00:38:10;4.00;;;3.28;;
9138;SDS011;4604;48.616;9.548;2022-08-25T00:40:38;3.80;;;3.15;;
9138;SDS011;4604;48.616;9.548;2022-08-25T00:43:08;4.00;;;3.60;;
9138;SDS011;4604;48.616;9.548;2022-08-25T00:45:35;3.60;;;3.22;;
9138;SDS011;4604;48.616;9.548;2022-08-25T00:48:03;4.53;;;3.60;;
9138;SDS011;4604;48.616;9.548;2022-08-25T00:50:31;4.70;;;3.80;;
9138;SDS011;4604;48.616;9.548;2022-08-25T00:53:01;3.50;;;3.20;;
9138;SDS011;4604;48.616;9.548;2022-08-25T00:55:30;6.18;;;3.80;;
9138;SDS011;4604;48.616;9.548;2022-08-25T00:58:02;4.68;;;3.80;;
9138;SDS011;4604;48.616;9.548;2022-08-25T01:00:33;3.85;;;3.38;;
9138;SDS011;4604;48.616;9.548;2022-08-25T01:03:02;3.88;;;3.33;;
9138;SDS011;4604;48.616;9.548;2022-08-25T01:05:30;4.38;;;3.40;;
9138;SDS011;4604;48.616;9.548;2022-08-25T01:07:58;4.10;;;3.65;;
9138;SDS011;4604;48.616;9.548;2022-08-25T01:10:27;3.90;;;3.50;;
9138;SDS011;4604;48.616;9.548;2022-08-25T01:12:57;5.97;;;3.53;;
9138;SDS011;4604;48.616;9.548;2022-08-25T01:15:27;5.93;;;4.03;;
9138;SDS011;4604;48.616;9.548;2022-08-25T01:17:55;4.60;;;3.67;;
9138;SDS011;4604;48.616;9.548;2022-08-25T01:20:25;7.00;;;3.40;;
9138;SDS011;4604;48.616;9.548;2022-08-25T01:22:55;5.22;;;3.42;;
9138;SDS011;4604;48.616;9.548;2022-08-25T01:25:24;4.97;;;3.60;;
9138;SDS011;4604;48.616;9.548;2022-08-25T01:27:59;4.40;;;3.60;;
9138;SDS011;4604;48.616;9.548;2022-08-25T01:30:27;3.42;;;3.13;;
9138;SDS011;4604;48.616;9.548;2022-08-25T01:32:53;5.53;;;3.58;;
9138;SDS011;4604;48.616;9.548;2022-08-25T01:35:20;3.83;;;3.47;;
9138;SDS011;4604;48.616;9.548;2022-08-25T01:37:47;4.32;;;3.65;;
9138;SDS011;4604;48.616;9.548;2022-08-25T01:40:16;5.03;;;3.75;;
9138;SDS011;4604;48.616;9.548;2022-08-25T01:42:46;4.65;;;3.40;;
9138;SDS011;4604;48.616;9.548;2022-08-25T01:45:18;5.18;;;3.60;;
9138;SDS011;4604;48.616;9.548;2022-08-25T01:47:46;4.68;;;3.80;;
9138;SDS011;4604;48.616;9.548;2022-08-25T01:50:13;4.20;;;3.58;;
9138;SDS011;4604;48.616;9.548;2022-08-25T01:52:45;4.75;;;3.88;;
9138;SDS011;4604;48.616;9.548;2022-08-25T01:55:18;4.57;;;3.63;;
9138;SDS011;4604;48.616;9.548;2022-08-25T01:57:45;4.15;;;3.65;;
9138;SDS011;4604;48.616;9.548;2022-08-25T02:00:13;4.38;;;3.85;;
9138;SDS011;4604;48.616;9.548;2022-08-25T02:02:40;5.28;;;4.28;;
9138;SDS011;4604;48.616;9.548;2022-08-25T02:05:07;4.03;;;3.63;;
9138;SDS011;4604;48.616;9.548;2022-08-25T02:07:35;4.65;;;3.72;;
9138;SDS011;4604;48.616;9.548;2022-08-25T02:10:02;4.63;;;3.80;;
9138;SDS011;4604;48.616;9.548;2022-08-25T02:12:33;4.60;;;3.88;;
9138;SDS011;4604;48.616;9.548;2022-08-25T02:15:00;6.28;;;4.15;;
9138;SDS011;4604;48.616;9.548;2022-08-25T02:17:28;4.50;;;4.10;;
9138;SDS011;4604;48.616;9.548;2022-08-25T02:19:55;4.95;;;4.35;;
9138;SDS011;4604;48.616;9.548;2022-08-25T02:22:22;5.60;;;4.05;;
9138;SDS011;4604;48.616;9.548;2022-08-25T02:24:49;5.50;;;4.18;;
9138;SDS011;4604;48.616;9.548;2022-08-25T02:27:16;4.57;;;4.07;;
9138;SDS011;4604;48.616;9.548;2022-08-25T02:29:44;5.07;;;4.38;;
9138;SDS011;4604;48.616;9.548;2022-08-25T02:32:11;6.40;;;4.40;;
9138;SDS011;4604;48.616;9.548;2022-08-25T02:34:38;7.68;;;4.68;;
9138;SDS011;4604;48.616;9.548;2022-08-25T02:37:05;4.43;;;4.03;;
9138;SDS011;4604;48.616;9.548;2022-08-25T02:39:32;5.57;;;4.55;;
9138;SDS011;4604;48.616;9.548;2022-08-25T02:41:59;5.68;;;4.35;;
9138;SDS011;4604;48.616;9.548;2022-08-25T02:44:25;5.25;;;4.50;;
9138;SDS011;4604;48.616;9.548;2022-08-25T02:46:53;8.30;;;4.30;;
9138;SDS011;4604;48.616;9.548;2022-08-25T02:49:20;5.88;;;4.88;;
9138;SDS011;4604;48.616;9.548;2022-08-25T02:51:47;5.72;;;4.68;;
9138;SDS011;4604;48.616;9.548;2022-08-25T02:54:13;4.90;;;4.22;;
9138;SDS011;4604;48.616;9.548;2022-08-25T02:56:40;5.53;;;4.85;;
9138;SDS011;4604;48.616;9.548;2022-08-25T02:59:07;7.53;;;4.97;;
9138;SDS011;4604;48.616;9.548;2022-08-25T03:01:35;4.85;;;4.20;;
9138;SDS011;4604;48.616;9.548;2022-08-25T03:04:03;5.20;;;4.30;;
9138;SDS011;4604;48.616;9.548;2022-08-25T03:06:31;6.55;;;5.20;;
9138;SDS011;4604;48.616;9.548;2022-08-25T03:08:58;9.82;;;5.32;;
9138;SDS011;4604;48.616;9.548;2022-08-25T03:11:25;8.23;;;5.45;;
9138;SDS011;4604;48.616;9.548;2022-08-25T03:13:53;6.63;;;5.10;;
9138;SDS011;4604;48.616;9.548;2022-08-25T03:16:20;8.32;;;4.75;;
9138;SDS011;4604;48.616;9.548;2022-08-25T03:18:47;6.38;;;5.20;;
9138;SDS011;4604;48.616;9.548;2022-08-25T03:21:15;5.32;;;4.82;;
9138;SDS011;4604;48.616;9.548;2022-08-25T03:23:43;4.38;;;3.97;;
9138;SDS011;4604;48.616;9.548;2022-08-25T03:26:10;5.70;;;4.50;;
9138;SDS011;4604;48.616;9.548;2022-08-25T03:29:03;6.15;;;5.07;;
9138;SDS011;4604;48.616;9.548;2022-08-25T03:31:30;6.03;;;5.15;;
9138;SDS011;4604;48.616;9.548;2022-08-25T03:33:58;6.25;;;5.00;;
9138;SDS011;4604;48.616;9.548;2022-08-25T03:36:27;6.25;;;4.47;;
9138;SDS011;4604;48.616;9.548;2022-08-25T03:38:53;6.60;;;5.47;;
9138;SDS011;4604;48.616;9.548;2022-08-25T03:41:22;5.57;;;4.63;;
9138;SDS011;4604;48.616;9.548;2022-08-25T03:43:52;5.82;;;4.85;;
9138;SDS011;4604;48.616;9.548;2022-08-25T03:46:20;6.00;;;5.20;;
9138;SDS011;4604;48.616;9.548;2022-08-25T03:48:48;6.95;;;5.72;;
9138;SDS011;4604;48.616;9.548;2022-08-25T03:51:19;6.88;;;5.25;;
9138;SDS011;4604;48.616;9.548;2022-08-25T03:53:48;5.97;;;5.20;;
9138;SDS011;4604;48.616;9.548;2022-08-25T03:56:15;6.43;;;4.80;;
9138;SDS011;4604;48.616;9.548;2022-08-25T03:58:43;6.30;;;5.28;;
9138;SDS011;4604;48.616;9.548;2022-08-25T04:01:10;5.20;;;4.47;;
9138;SDS011;4604;48.616;9.548;2022-08-25T04:03:37;6.88;;;5.50;;
9138;SDS011;4604;48.616;9.548;2022-08-25T04:06:05;6.00;;;5.03;;
9138;SDS011;4604;48.616;9.548;2022-08-25T04:08:33;7.13;;;5.10;;
9138;SDS011;4604;48.616;9.548;2022-08-25T04:11:05;6.18;;;5.20;;
9138;SDS011;4604;48.616;9.548;2022-08-25T04:13:33;7.63;;;5.38;;
9138;SDS011;4604;48.616;9.548;2022-08-25T04:16:01;6.22;;;4.60;;
9138;SDS011;4604;48.616;9.548;2022-08-25T04:18:28;6.05;;;5.05;;
9138;SDS011;4604;48.616;9.548;2022-08-25T04:21:00;9.93;;;5.30;;
9138;SDS011;4604;48.616;9.548;2022-08-25T04:23:27;6.75;;;5.05;;
9138;SDS011;4604;48.616;9.548;2022-08-25T04:25:54;5.85;;;4.63;;
9138;SDS011;4604;48.616;9.548;2022-08-25T04:28:22;6.07;;;4.93;;
9138;SDS011;4604;48.616;9.548;2022-08-25T04:30:49;7.45;;;5.53;;
9138;SDS011;4604;48.616;9.548;2022-08-25T04:33:16;8.40;;;6.00;;
9138;SDS011;4604;48.616;9.548;2022-08-25T04:35:45;7.60;;;5.95;;
9138;SDS011;4604;48.616;9.548;2022-08-25T04:38:13;6.88;;;5.70;;
9138;SDS011;4604;48.616;9.548;2022-08-25T04:40:41;9.50;;;5.85;;
9138;SDS011;4604;48.616;9.548;2022-08-25T04:43:08;6.50;;;5.40;;
9138;SDS011;4604;48.616;9.548;2022-08-25T04:45:37;7.03;;;6.13;;
9138;SDS011;4604;48.616;9.548;2022-08-25T04:48:04;7.85;;;6.00;;
9138;SDS011;4604;48.616;9.548;2022-08-25T04:50:31;6.05;;;4.80;;
9138;SDS011;4604;48.616;9.548;2022-08-25T04:52:58;7.22;;;5.95;;
9138;SDS011;4604;48.616;9.548;2022-08-25T04:55:25;7.13;;;6.07;;
9138;SDS011;4604;48.616;9.548;2022-08-25T04:57:52;9.90;;;6.45;;
9138;SDS011;4604;48.616;9.548;2022-08-25T05:00:18;7.53;;;5.68;;
9138;SDS011;4604;48.616;9.548;2022-08-25T05:02:46;6.68;;;5.50;;
9138;SDS011;4604;48.616;9.548;2022-08-25T05:05:13;7.38;;;4.95;;
9138;SDS011;4604;48.616;9.548;2022-08-25T05:07:40;12.43;;;6.20;;
9138;SDS011;4604;48.616;9.548;2022-08-25T05:10:07;7.47;;;6.30;;
9138;SDS011;4604;48.616;9.548;2022-08-25T05:12:34;8.80;;;5.97;;
9138;SDS011;4604;48.616;9.548;2022-08-25T05:15:00;7.13;;;6.18;;
9138;SDS011;4604;48.616;9.548;2022-08-25T05:17:49;8.73;;;5.95;;
9138;SDS011;4604;48.616;9.548;2022-08-25T05:20:16;7.47;;;5.40;;
9138;SDS011;4604;48.616;9.548;2022-08-25T05:22:43;8.13;;;5.85;;
9138;SDS011;4604;48.616;9.548;2022-08-25T05:25:11;9.18;;;6.63;;
9138;SDS011;4604;48.616;9.548;2022-08-25T05:27:38;10.25;;;7.30;;
9138;SDS011;4604;48.616;9.548;2022-08-25T05:30:06;14.32;;;8.15;;
9138;SDS011;4604;48.616;9.548;2022-08-25T05:32:33;11.05;;;7.70;;
9138;SDS011;4604;48.616;9.548;2022-08-25T05:35:01;12.55;;;7.97;;
9138;SDS011;4604;48.616;9.548;2022-08-25T05:37:28;14.55;;;7.00;;
9138;SDS011;4604;48.616;9.548;2022-08-25T05:39:58;18.55;;;8.38;;
9138;SDS011;4604;48.616;9.548;2022-08-25T05:42:26;12.25;;;8.77;;
9138;SDS011;4604;48.616;9.548;2022-08-25T05:44:53;12.65;;;8.88;;
9138;SDS011;4604;48.616;9.548;2022-08-25T05:47:24;13.70;;;8.00;;
9138;SDS011;4604;48.616;9.548;2022-08-25T05:49:53;12.65;;;9.00;;
9138;SDS011;4604;48.616;9.548;2022-08-25T05:52:21;12.90;;;7.85;;
9138;SDS011;4604;48.616;9.548;2022-08-25T05:54:48;14.40;;;7.72;;
9138;SDS011;4604;48.616;9.548;2022-08-25T05:57:17;9.77;;;7.53;;
9138;SDS011;4604;48.616;9.548;2022-08-25T05:59:46;11.70;;;6.50;;
9138;SDS011;4604;48.616;9.548;2022-08-25T06:02:13;9.98;;;6.97;;
9138;SDS011;4604;48.616;9.548;2022-08-25T06:04:57;10.57;;;6.90;;
9138;SDS011;4604;48.616;9.548;2022-08-25T06:07:26;10.35;;;6.75;;
9138;SDS011;4604;48.616;9.548;2022-08-25T06:09:52;9.07;;;6.60;;
9138;SDS011;4604;48.616;9.548;2022-08-25T06:12:19;11.25;;;7.05;;
9138;SDS011;4604;48.616;9.548;2022-08-25T06:14:46;10.35;;;7.60;;
9138;SDS011;4604;48.616;9.548;2022-08-25T06:17:16;11.05;;;7.78;;
9138;SDS011;4604;48.616;9.548;2022-08-25T06:19:48;10.48;;;7.45;;
9138;SDS011;4604;48.616;9.548;2022-08-25T06:22:22;12.10;;;8.77;;
9138;SDS011;4604;48.616;9.548;2022-08-25T06:24:56;17.48;;;9.27;;
9138;SDS011;4604;48.616;9.548;2022-08-25T06:27:29;19.02;;;9.32;;
9138;SDS011;4604;48.616;9.548;2022-08-25T06:30:01;13.77;;;8.95;;
9138;SDS011;4604;48.616;9.548;2022-08-25T06:32:29;11.88;;;8.45;;
9138;SDS011;4604;48.616;9.548;2022-08-25T06:34:57;10.18;;;7.47;;
9138;SDS011;4604;48.616;9.548;2022-08-25T06:37:24;11.80;;;7.68;;
9138;SDS011;4604;48.616;9.548;2022-08-25T06:39:53;10.85;;;7.75;;
9138;SDS011;4604;48.616;9.548;2022-08-25T06:42:24;8.68;;;7.30;;
9138;SDS011;4604;48.616;9.548;2022-08-25T06:44:51;9.18;;;6.57;;
9138;SDS011;4604;48.616;9.548;2022-08-25T06:47:21;9.25;;;6.82;;
9138;SDS011;4604;48.616;9.548;2022-08-25T06:49:52;9.95;;;6.20;;
9138;SDS011;4604;48.616;9.548;2022-08-25T06:52:22;9.07;;;5.75;;
9138;SDS011;4604;48.616;9.548;2022-08-25T06:54:49;10.68;;;5.95;;
9138;SDS011;4604;48.616;9.548;2022-08-25T06:57:18;10.13;;;6.30;;
9138;SDS011;4604;48.616;9.548;2022-08-25T06:59:48;8.90;;;5.35;;
9138;SDS011;4604;48.616;9.548;2022-08-25T07:02:15;7.45;;;5.53;;
9138;SDS011;4604;48.616;9.548;2022-08-25T07:04:46;7.93;;;5.70;;
9138;SDS011;4604;48.616;9.548;2022-08-25T07:07:17;8.15;;;5.57;;
9138;SDS011;4604;48.616;9.548;2022-08-25T07:09:47;8.90;;;5.40;;
9138;SDS011;4604;48.616;9.548;2022-08-25T07:12:14;9.25;;;7.07;;
9138;SDS011;4604;48.616;9.548;2022-08-25T07:14:42;8.98;;;6.47;;
9138;SDS011;4604;48.616;9.548;2022-08-25T07:17:09;8.75;;;6.90;;
9138;SDS011;4604;48.616;9.548;2022-08-25T07:19:37;9.48;;;6.43;;
9138;SDS011;4604;48.616;9.548;2022-08-25T07:22:04;8.52;;;6.85;;
9138;SDS011;4604;48.616;9.548;2022-08-25T07:24:31;6.85;;;5.88;;
9138;SDS011;4604;48.616;9.548;2022-08-25T07:26:57;6.47;;;5.60;;
9138;SDS011;4604;48.616;9.548;2022-08-25T07:29:25;7.25;;;6.00;;
9138;SDS011;4604;48.616;9.548;2022-08-25T07:31:57;6.50;;;5.65;;
9138;SDS011;4604;48.616;9.548;2022-08-25T07:34:24;7.47;;;5.18;;
9138;SDS011;4604;48.616;9.548;2022-08-25T07:37:08;6.72;;;5.22;;
9138;SDS011;4604;48.616;9.548;2022-08-25T07:39:35;9.35;;;5.88;;
9138;SDS011;4604;48.616;9.548;2022-08-25T07:42:02;6.63;;;5.07;;
9138;SDS011;4604;48.616;9.548;2022-08-25T07:44:30;5.43;;;4.82;;
9138;SDS011;4604;48.616;9.548;2022-08-25T07:46:58;6.35;;;5.07;;
9138;SDS011;4604;48.616;9.548;2022-08-25T07:49:26;6.10;;;5.40;;
9138;SDS011;4604;48.616;9.548;2022-08-25T07:51:53;7.25;;;5.07;;
9138;SDS011;4604;48.616;9.548;2022-08-25T07:54:20;7.35;;;5.07;;
9138;SDS011;4604;48.616;9.548;2022-08-25T07:56:48;13.00;;;4.85;;
9138;SDS011;4604;48.616;9.548;2022-08-25T07:59:15;6.80;;;4.82;;
9138;SDS011;4604;48.616;9.548;2022-08-25T08:01:42;6.05;;;4.72;;
9138;SDS011;4604;48.616;9.548;2022-08-25T08:04:10;6.10;;;4.72;;
9138;SDS011;4604;48.616;9.548;2022-08-25T08:06:37;5.85;;;4.55;;
9138;SDS011;4604;48.616;9.548;2022-08-25T08:09:05;5.38;;;4.35;;
9138;SDS011;4604;48.616;9.548;2022-08-25T08:11:33;5.68;;;4.80;;
9138;SDS011;4604;48.616;9.548;2022-08-25T08:14:05;5.18;;;4.55;;
9138;SDS011;4604;48.616;9.548;2022-08-25T08:16:33;6.40;;;4.68;;
9138;SDS011;4604;48.616;9.548;2022-08-25T08:19:00;8.25;;;4.82;;
9138;SDS011;4604;48.616;9.548;2022-08-25T08:21:29;6.93;;;4.38;;
9138;SDS011;4604;48.616;9.548;2022-08-25T08:23:57;6.43;;;4.22;;
9138;SDS011;4604;48.616;9.548;2022-08-25T08:26:25;6.53;;;4.82;;
9138;SDS011;4604;48.616;9.548;2022-08-25T08:28:53;6.15;;;4.82;;
9138;SDS011;4604;48.616;9.548;2022-08-25T08:31:20;5.13;;;4.63;;
9138;SDS011;4604;48.616;9.548;2022-08-25T08:33:49;8.18;;;5.15;;
9138;SDS011;4604;48.616;9.548;2022-08-25T08:36:16;6.25;;;5.10;;
9138;SDS011;4604;48.616;9.548;2022-08-25T08:38:44;5.60;;;4.63;;
9138;SDS011;4604;48.616;9.548;2022-08-25T08:41:15;5.65;;;4.75;;
9138;SDS011;4604;48.616;9.548;2022-08-25T08:44:12;4.75;;;4.15;;
9138;SDS011;4604;48.616;9.548;2022-08-25T08:46:48;8.00;;;4.95;;
9138;SDS011;4604;48.616;9.548;2022-08-25T08:49:30;5.07;;;4.40;;
9138;SDS011;4604;48.616;9.548;2022-08-25T08:52:03;5.60;;;4.65;;
9138;SDS011;4604;48.616;9.548;2022-08-25T08:54:34;5.68;;;4.40;;
9138;SDS011;4604;48.616;9.548;2022-08-25T08:57:07;5.68;;;4.47;;
9138;SDS011;4604;48.616;9.548;2022-08-25T08:59:39;4.95;;;4.35;;
9138;SDS011;4604;48.616;9.548;2022-08-25T09:02:14;6.25;;;5.05;;
9138;SDS011;4604;48.616;9.548;2022-08-25T09:04:48;5.78;;;5.18;;
9138;SDS011;4604;48.616;9.548;2022-08-25T09:07:21;5.45;;;4.93;;
9138;SDS011;4604;48.616;9.548;2022-08-25T09:09:54;8.55;;;5.40;;
9138;SDS011;4604;48.616;9.548;2022-08-25T09:12:24;5.70;;;5.05;;
9138;SDS011;4604;48.616;9.548;2022-08-25T09:15:02;5.57;;;5.03;;
9138;SDS011;4604;48.616;9.548;2022-08-25T09:17:44;6.00;;;5.15;;
9138;SDS011;4604;48.616;9.548;2022-08-25T09:23:24;5.93;;;5.05;;
9138;SDS011;4604;48.616;9.548;2022-08-25T09:26:02;7.88;;;4.97;;
9138;SDS011;4604;48.616;9.548;2022-08-25T09:28:47;4.80;;;4.30;;
9138;SDS011;4604;48.616;9.548;2022-08-25T09:31:17;5.53;;;4.93;;
9138;SDS011;4604;48.616;9.548;2022-08-25T09:33:47;7.03;;;4.97;;
9138;SDS011;4604;48.616;9.548;2022-08-25T09:36:13;10.27;;;5.18;;
9138;SDS011;4604;48.616;9.548;2022-08-25T09:38:40;6.30;;;4.82;;
9138;SDS011;4604;48.616;9.548;2022-08-25T09:41:08;6.57;;;4.40;;
9138;SDS011;4604;48.616;9.548;2022-08-25T09:43:37;6.68;;;4.70;;
9138;SDS011;4604;48.616;9.548;2022-08-25T09:46:10;5.63;;;4.40;;
9138;SDS011;4604;48.616;9.548;2022-08-25T09:48:42;5.30;;;4.80;;
9138;SDS011;4604;48.616;9.548;2022-08-25T09:51:15;5.85;;;4.20;;
9138;SDS011;4604;48.616;9.548;2022-08-25T09:53:50;4.93;;;4.15;;
9138;SDS011;4604;48.616;9.548;2022-08-25T09:56:22;5.32;;;4.60;;
9138;SDS011;4604;48.616;9.548;2022-08-25T09:58:51;6.88;;;4.25;;
9138;SDS011;4604;48.616;9.548;2022-08-25T10:01:20;4.95;;;4.43;;
9138;SDS011;4604;48.616;9.548;2022-08-25T10:03:57;6.13;;;4.10;;
9138;SDS011;4604;48.616;9.548;2022-08-25T10:06:27;6.75;;;4.43;;
9138;SDS011;4604;48.616;9.548;2022-08-25T10:08:58;5.53;;;4.63;;
9138;SDS011;4604;48.616;9.548;2022-08-25T10:11:37;5.32;;;4.50;;
9138;SDS011;4604;48.616;9.548;2022-08-25T10:14:20;5.18;;;4.00;;
9138;SDS011;4604;48.616;9.548;2022-08-25T10:16:53;4.97;;;4.18;;
9138;SDS011;4604;48.616;9.548;2022-08-25T10:19:38;5.50;;;4.65;;
9138;SDS011;4604;48.616;9.548;2022-08-25T10:22:06;5.95;;;4.43;;
9138;SDS011;4604;48.616;9.548;2022-08-25T10:24:34;5.70;;;3.80;;
9138;SDS011;4604;48.616;9.548;2022-08-25T10:27:06;4.72;;;4.30;;
9138;SDS011;4604;48.616;9.548;2022-08-25T10:29:49;5.50;;;4.10;;
9138;SDS011;4604;48.616;9.548;2022-08-25T10:32:34;4.72;;;3.92;;
9138;SDS011;4604;48.616;9.548;2022-08-25T10:35:15;3.67;;;3.33;;
9138;SDS011;4604;48.616;9.548;2022-08-25T10:37:45;4.50;;;3.65;;
9138;SDS011;4604;48.616;9.548;2022-08-25T10:40:23;5.72;;;3.63;;
9138;SDS011;4604;48.616;9.548;2022-08-25T10:42:58;4.20;;;3.80;;
9138;SDS011;4604;48.616;9.548;2022-08-25T10:45:33;4.10;;;3.70;;
9138;SDS011;4604;48.616;9.548;2022-08-25T10:51:07;3.40;;;3.10;;
9138;SDS011;4604;48.616;9.548;2022-08-25T10:53:47;4.32;;;3.15;;
9138;SDS011;4604;48.616;9.548;2022-08-25T10:56:22;4.32;;;3.60;;
9138;SDS011;4604;48.616;9.548;2022-08-25T11:02:07;4.10;;;3.70;;
9138;SDS011;4604;48.616;9.548;2022-08-25T11:05:04;3.90;;;3.60;;
9138;SDS011;4604;48.616;9.548;2022-08-25T11:07:36;4.20;;;3.80;;
9138;SDS011;4604;48.616;9.548;2022-08-25T11:10:07;5.00;;;3.72;;
9138;SDS011;4604;48.616;9.548;2022-08-25T11:12:39;4.60;;;3.88;;
9138;SDS011;4604;48.616;9.548;2022-08-25T11:15:11;4.00;;;3.50;;
9138;SDS011;4604;48.616;9.548;2022-08-25T11:17:45;3.50;;;3.20;;
9138;SDS011;4604;48.616;9.548;2022-08-25T11:20:19;3.70;;;3.35;;
9138;SDS011;4604;48.616;9.548;2022-08-25T11:22:49;5.78;;;3.50;;
9138;SDS011;4604;48.616;9.548;2022-08-25T11:25:27;3.70;;;3.40;;
9138;SDS011;4604;48.616;9.548;2022-08-25T11:27:56;3.90;;;3.38;;
9138;SDS011;4604;48.616;9.548;2022-08-25T11:30:30;3.58;;;3.28;;
9138;SDS011;4604;48.616;9.548;2022-08-25T11:32:56;5.15;;;2.85;;
9138;SDS011;4604;48.616;9.548;2022-08-25T11:35:25;3.70;;;3.40;;
9138;SDS011;4604;48.616;9.548;2022-08-25T11:38:02;3.60;;;3.30;;
9138;SDS011;4604;48.616;9.548;2022-08-25T11:40:44;4.13;;;3.72;;
9138;SDS011;4604;48.616;9.548;2022-08-25T11:43:25;3.67;;;3.35;;
9138;SDS011;4604;48.616;9.548;2022-08-25T11:46:24;4.60;;;3.75;;
9138;SDS011;4604;48.616;9.548;2022-08-25T11:49:16;4.10;;;3.70;;
9138;SDS011;4604;48.616;9.548;2022-08-25T11:52:00;4.55;;;3.35;;
9138;SDS011;4604;48.616;9.548;2022-08-25T11:54:27;5.10;;;3.35;;
9138;SDS011;4604;48.616;9.548;2022-08-25T11:57:00;5.05;;;3.40;;
9138;SDS011;4604;48.616;9.548;2022-08-25T12:02:36;3.70;;;3.40;;
9138;SDS011;4604;48.616;9.548;2022-08-25T12:05:06;3.58;;;3.28;;
9138;SDS011;4604;48.616;9.548;2022-08-25T12:10:52;3.67;;;3.38;;
9138;SDS011;4604;48.616;9.548;2022-08-25T12:13:26;5.10;;;3.60;;
9138;SDS011;4604;48.616;9.548;2022-08-25T12:16:05;5.43;;;3.72;;
9138;SDS011;4604;48.616;9.548;2022-08-25T12:18:38;3.88;;;3.58;;
9138;SDS011;4604;48.616;9.548;2022-08-25T12:24:10;3.80;;;3.50;;
9138;SDS011;4604;48.616;9.548;2022-08-25T12:26:50;4.05;;;3.70;;
9138;SDS011;4604;48.616;9.548;2022-08-25T12:29:27;3.90;;;3.60;;
9138;SDS011;4604;48.616;9.548;2022-08-25T12:34:53;4.60;;;4.20;;
9138;SDS011;4604;48.616;9.548;2022-08-25T12:37:53;4.80;;;4.30;;
9138;SDS011;4604;48.616;9.548;2022-08-25T12:40:24;6.43;;;3.63;;
9138;SDS011;4604;48.616;9.548;2022-08-25T12:43:05;3.58;;;3.28;;
9138;SDS011;4604;48.616;9.548;2022-08-25T12:45:40;4.28;;;3.78;;
9138;SDS011;4604;48.616;9.548;2022-08-25T12:51:09;5.38;;;3.60;;
9138;SDS011;4604;48.616;9.548;2022-08-25T12:53:45;4.10;;;3.42;;
9138;SDS011;4604;48.616;9.548;2022-08-25T12:56:19;5.38;;;3.20;;
9138;SDS011;4604;48.616;9.548;2022-08-25T12:58:53;4.25;;;3.90;;
9138;SDS011;4604;48.616;9.548;2022-08-25T13:01:29;4.63;;;3.92;;
9138;SDS011;4604;48.616;9.548;2022-08-25T13:04:14;5.38;;;3.40;;
9138;SDS011;4604;48.616;9.548;2022-08-25T13:07:03;8.50;;;3.83;;
9138;SDS011;4604;48.616;9.548;2022-08-25T13:10:06;4.65;;;3.80;;
9138;SDS011;4604;48.616;9.548;2022-08-25T13:12:45;5.65;;;3.47;;
9138;SDS011;4604;48.616;9.548;2022-08-25T13:15:24;4.07;;;3.75;;
9138;SDS011;4604;48.616;9.548;2022-08-25T13:17:54;4.75;;;3.58;;
9138;SDS011;4604;48.616;9.548;2022-08-25T13:20:22;4.82;;;4.10;;
9138;SDS011;4604;48.616;9.548;2022-08-25T13:22:52;4.43;;;3.83;;
9138;SDS011;4604;48.616;9.548;2022-08-25T13:25:25;4.28;;;3.72;;
9138;SDS011;4604;48.616;9.548;2022-08-25T13:27:55;3.65;;;3.35;;
9138;SDS011;4604;48.616;9.548;2022-08-25T13:30:25;3.40;;;3.10;;
9138;SDS011;4604;48.616;9.548;2022-08-25T13:32:53;3.50;;;3.20;;
9138;SDS011;4604;48.616;9.548;2022-08-25T13:35:22;5.68;;;3.60;;
9138;SDS011;4604;48.616;9.548;2022-08-25T13:37:52;3.80;;;3.50;;
9138;SDS011;4604;48.616;9.548;2022-08-25T13:40:22;4.85;;;3.60;;
9138;SDS011;4604;48.616;9.548;2022-08-25T13:42:51;4.00;;;3.60;;
9138;SDS011;4604;48.616;9.548;2022-08-25T13:45:19;4.28;;;3.40;;
9138;SDS011;4604;48.616;9.548;2022-08-25T13:47:48;5.05;;;3.53;;
9138;SDS011;4604;48.616;9.548;2022-08-25T13:50:20;4.47;;;4.00;;
9138;SDS011;4604;48.616;9.548;2022-08-25T13:52:56;6.80;;;3.60;;
9138;SDS011;4604;48.616;9.548;2022-08-25T13:55:26;3.70;;;3.40;;
9138;SDS011;4604;48.616;9.548;2022-08-25T13:57:56;3.80;;;3.50;;
9138;SDS011;4604;48.616;9.548;2022-08-25T14:00:26;3.75;;;3.45;;
9138;SDS011;4604;48.616;9.548;2022-08-25T14:02:55;4.97;;;3.80;;
9138;SDS011;4604;48.616;9.548;2022-08-25T14:05:36;6.22;;;3.65;;
9138;SDS011;4604;48.616;9.548;2022-08-25T14:08:07;5.03;;;3.53;;
9138;SDS011;4604;48.616;9.548;2022-08-25T14:11:01;3.70;;;3.40;;
9138;SDS011;4604;48.616;9.548;2022-08-25T14:13:31;4.22;;;3.53;;
9138;SDS011;4604;48.616;9.548;2022-08-25T14:16:05;4.03;;;3.63;;
9138;SDS011;4604;48.616;9.548;2022-08-25T14:18:33;4.38;;;3.97;;
9138;SDS011;4604;48.616;9.548;2022-08-25T14:21:01;3.92;;;3.60;;
9138;SDS011;4604;48.616;9.548;2022-08-25T14:23:35;3.92;;;3.53;;
9138;SDS011;4604;48.616;9.548;2022-08-25T14:26:03;4.32;;;3.95;;
9138;SDS011;4604;48.616;9.548;2022-08-25T14:28:30;5.57;;;3.65;;
9138;SDS011;4604;48.616;9.548;2022-08-25T14:30:58;4.20;;;3.80;;
9138;SDS011;4604;48.616;9.548;2022-08-25T14:33:28;4.32;;;3.92;;
9138;SDS011;4604;48.616;9.548;2022-08-25T14:35:58;7.63;;;3.55;;
9138;SDS011;4604;48.616;9.548;2022-08-25T14:38:28;3.95;;;3.55;;
9138;SDS011;4604;48.616;9.548;2022-08-25T14:40:57;3.88;;;3.58;;
9138;SDS011;4604;48.616;9.548;2022-08-25T14:43:23;3.75;;;3.45;;
9138;SDS011;4604;48.616;9.548;2022-08-25T14:45:50;3.90;;;3.50;;
9138;SDS011;4604;48.616;9.548;2022-08-25T14:48:19;3.75;;;3.35;;
9138;SDS011;4604;48.616;9.548;2022-08-25T14:50:50;5.60;;;3.05;;
9138;SDS011;4604;48.616;9.548;2022-08-25T14:53:18;3.42;;;3.13;;
9138;SDS011;4604;48.616;9.548;2022-08-25T14:55:45;3.83;;;3.53;;
9138;SDS011;4604;48.616;9.548;2022-08-25T14:58:14;3.47;;;3.17;;
9138;SDS011;4604;48.616;9.548;2022-08-25T15:00:43;4.90;;;3.40;;
9138;SDS011;4604;48.616;9.548;2022-08-25T15:03:11;3.50;;;3.20;;
9138;SDS011;4604;48.616;9.548;2022-08-25T15:05:40;3.85;;;3.55;;
9138;SDS011;4604;48.616;9.548;2022-08-25T15:08:08;3.97;;;3.67;;
9138;SDS011;4604;48.616;9.548;2022-08-25T15:10:53;4.18;;;3.30;;
9138;SDS011;4604;48.616;9.548;2022-08-25T15:13:21;3.53;;;3.22;;
9138;SDS011;4604;48.616;9.548;2022-08-25T15:15:48;3.38;;;3.08;;
9138;SDS011;4604;48.616;9.548;2022-08-25T15:18:15;3.58;;;3.28;;
9138;SDS011;4604;48.616;9.548;2022-08-25T15:20:42;4.00;;;3.55;;
9138;SDS011;4604;48.616;9.548;2022-08-25T15:23:09;3.40;;;3.10;;
9138;SDS011;4604;48.616;9.548;2022-08-25T15:25:35;3.75;;;3.45;;
9138;SDS011;4604;48.616;9.548;2022-08-25T15:28:03;8.90;;;3.53;;
9138;SDS011;4604;48.616;9.548;2022-08-25T15:30:32;3.72;;;3.00;;
9138;SDS011;4604;48.616;9.548;2022-08-25T15:32:59;3.42;;;3.13;;
9138;SDS011;4604;48.616;9.548;2022-08-25T15:35:26;3.90;;;3.45;;
9138;SDS011;4604;48.616;9.548;2022-08-25T15:37:52;4.97;;;3.55;;
9138;SDS011;4604;48.616;9.548;2022-08-25T15:40:19;3.75;;;3.40;;
9138;SDS011;4604;48.616;9.548;2022-08-25T15:42:46;6.28;;;3.42;;
9138;SDS011;4604;48.616;9.548;2022-08-25T15:45:13;5.32;;;3.03;;
9138;SDS011;4604;48.616;9.548;2022-08-25T15:47:41;3.60;;;3.30;;
9138;SDS011;4604;48.616;9.548;2022-08-25T15:50:09;3.60;;;3.30;;
9138;SDS011;4604;48.616;9.548;2022-08-25T15:52:39;4.32;;;3.42;;
9138;SDS011;4604;48.616;9.548;2022-08-25T15:55:06;3.42;;;3.13;;
9138;SDS011;4604;48.616;9.548;2022-08-25T15:57:34;3.97;;;3.15;;
9138;SDS011;4604;48.616;9.548;2022-08-25T16:00:03;3.78;;;3.10;;